createdAt,value
2023-05-05T00:03:00.592Z,17.50
2023-05-05T00:07:02.547Z,21.67
2023-05-05T00:11:04.353Z,11.38
2023-05-05T00:15:07.556Z,12.32
2023-05-05T00:19:09.354Z,11.65
2023-05-05T00:23:11.182Z,11.10
2023-05-05T00:27:13.001Z,6.60
2023-05-05T00:31:18.206Z,7.25
2023-05-05T00:35:20.602Z,6.35
2023-05-05T00:39:22.356Z,5.45
2023-05-05T00:43:24.136Z,4.68
2023-05-05T00:47:25.936Z,5.30
2023-05-05T00:51:28.534Z,4.40
2023-05-05T00:55:31.083Z,1.05
2023-05-05T00:59:34.193Z,2.13
2023-05-05T01:03:38.404Z,3.75
2023-05-05T01:08:04.664Z,4.88
2023-05-05T01:12:24.391Z,2.90
2023-05-05T01:16:33.473Z,3.65
2023-05-05T01:21:07.633Z,2.92
2023-05-05T01:25:20.516Z,1.65
2023-05-05T01:30:02.290Z,6.70
2023-05-05T01:34:08.766Z,7.22
2023-05-05T01:38:21.893Z,3.42
2023-05-05T01:42:25.177Z,2.92
2023-05-05T01:46:28.540Z,2.80
2023-05-05T01:50:31.146Z,5.65
2023-05-05T01:54:34.904Z,4.22
2023-05-05T01:58:38.300Z,3.97
2023-05-05T02:02:42.090Z,5.32
2023-05-05T02:06:47.693Z,12.05
2023-05-05T02:10:50.743Z,3.03
2023-05-05T02:14:53.549Z,6.80
2023-05-05T02:18:56.357Z,4.82
2023-05-05T02:22:59.337Z,6.47
2023-05-05T02:27:03.901Z,3.40
2023-05-05T02:31:08.803Z,3.50
2023-05-05T02:35:23.301Z,2.55
2023-05-05T02:39:31.580Z,2.55
2023-05-05T02:43:41.099Z,3.17
2023-05-05T02:47:43.230Z,3.90
2023-05-05T02:51:45.358Z,3.10
2023-05-05T02:56:01.541Z,2.88
2023-05-05T03:00:31.570Z,3.22
2023-05-05T03:04:41.911Z,1.00
2023-05-05T03:09:06.502Z,3.75
2023-05-05T03:13:10.806Z,5.97
2023-05-05T03:17:18.980Z,6.50
2023-05-05T03:21:21.735Z,9.57
2023-05-05T03:25:47.967Z,3.70
2023-05-05T03:30:04.164Z,5.28
2023-05-05T03:34:08.716Z,4.30
2023-05-05T03:38:17.951Z,6.22
2023-05-05T03:42:21.152Z,5.47
2023-05-05T03:46:23.117Z,8.68
2023-05-05T03:50:25.145Z,7.43
2023-05-05T03:54:27.077Z,7.32
2023-05-05T03:58:28.919Z,9.60
2023-05-05T04:02:31.625Z,5.47
2023-05-05T04:06:33.573Z,14.23
2023-05-05T04:10:36.163Z,8.90
2023-05-05T04:14:38.270Z,12.18
2023-05-05T04:18:40.864Z,10.98
2023-05-05T04:22:43.007Z,12.90
2023-05-05T04:26:45.323Z,16.20
2023-05-05T04:30:47.747Z,17.15
2023-05-05T04:34:49.784Z,20.08
2023-05-05T04:38:52.013Z,22.83
2023-05-05T04:42:53.936Z,21.60
2023-05-05T04:46:56.711Z,32.53
2023-05-05T04:50:58.868Z,27.92
2023-05-05T04:55:01.535Z,25.80
2023-05-05T04:59:03.595Z,31.88
2023-05-05T05:03:05.801Z,35.05
2023-05-05T05:07:08.216Z,30.52
2023-05-05T05:11:10.110Z,28.73
2023-05-05T05:15:13.526Z,30.92
2023-05-05T05:19:15.443Z,29.80
2023-05-05T05:23:17.426Z,28.85
2023-05-05T05:27:20.158Z,31.50
2023-05-05T05:31:24.518Z,34.25
2023-05-05T05:35:26.844Z,34.00
2023-05-05T05:39:28.893Z,31.13
2023-05-05T05:43:30.957Z,32.22
2023-05-05T05:47:32.960Z,29.55
2023-05-05T05:51:35.483Z,32.25
2023-05-05T05:55:37.485Z,26.65
2023-05-05T05:59:39.489Z,29.90
2023-05-05T06:03:41.968Z,26.92
2023-05-05T06:07:43.973Z,30.45
2023-05-05T06:11:46.184Z,22.38
2023-05-05T06:15:48.188Z,30.50
2023-05-05T06:19:52.426Z,27.55
2023-05-05T06:23:56.367Z,21.17
2023-05-05T06:28:00.235Z,22.60
2023-05-05T06:32:02.232Z,22.67
2023-05-05T06:36:04.364Z,21.30
2023-05-05T06:40:08.091Z,18.30
2023-05-05T06:44:11.505Z,17.58
2023-05-05T06:48:13.436Z,30.95
2023-05-05T06:52:15.238Z,16.38
2023-05-05T06:56:17.365Z,18.85
2023-05-05T07:00:19.747Z,19.98
2023-05-05T07:04:21.842Z,19.08
2023-05-05T07:08:23.678Z,19.27
2023-05-05T07:12:25.524Z,16.10
2023-05-05T07:16:27.601Z,18.70
2023-05-05T07:20:29.552Z,18.27
2023-05-05T07:24:31.396Z,12.35
2023-05-05T07:28:35.144Z,15.02
2023-05-05T07:32:37.007Z,14.52
2023-05-05T07:36:38.936Z,11.40
2023-05-05T07:40:40.961Z,6.53
2023-05-05T07:44:42.876Z,6.22
2023-05-05T07:48:44.858Z,9.25
2023-05-05T07:52:51.855Z,13.48
2023-05-05T07:57:02.102Z,7.28
2023-05-05T08:01:06.604Z,14.05
2023-05-05T08:05:09.022Z,10.50
2023-05-05T08:09:12.018Z,10.48
2023-05-05T08:13:13.819Z,9.23
2023-05-05T08:17:18.248Z,12.20
2023-05-05T08:21:20.239Z,7.88
2023-05-05T08:25:22.164Z,6.00
2023-05-05T08:29:24.211Z,4.85
2023-05-05T08:33:26.420Z,7.30
2023-05-05T08:37:28.415Z,2.00
2023-05-05T08:41:30.292Z,5.03
2023-05-05T08:45:32.728Z,4.32
2023-05-05T08:49:43.851Z,2.75
2023-05-05T08:53:54.554Z,7.00
2023-05-05T08:57:58.224Z,3.70
2023-05-05T09:02:01.798Z,3.13
2023-05-05T09:06:04.370Z,3.47
2023-05-05T09:10:08.267Z,4.53
2023-05-05T09:14:10.356Z,2.15
2023-05-05T09:18:13.266Z,3.13
2023-05-05T09:22:15.276Z,1.27
2023-05-05T09:26:17.234Z,4.97
2023-05-05T09:30:25.127Z,8.68
2023-05-05T09:34:27.295Z,3.00
2023-05-05T09:38:29.070Z,2.65
2023-05-05T09:42:32.005Z,2.83
2023-05-05T09:46:34.377Z,4.53
2023-05-05T09:50:44.182Z,5.88
2023-05-05T09:54:53.564Z,7.65
2023-05-05T09:59:08.583Z,4.32
2023-05-05T10:03:10.472Z,3.47
2023-05-05T10:07:24.403Z,1.60
2023-05-05T10:11:26.248Z,4.90
2023-05-05T10:15:28.349Z,6.50
2023-05-05T10:19:35.226Z,2.95
2023-05-05T10:24:08.203Z,1.30
2023-05-05T10:28:16.776Z,2.83
2023-05-05T10:32:52.925Z,2.50
2023-05-05T10:36:51.613Z,3.42
2023-05-05T10:40:55.218Z,5.10
2023-05-05T10:44:57.075Z,3.50
2023-05-05T10:49:27.997Z,3.88
2023-05-05T10:53:36.087Z,5.70
2023-05-05T10:57:41.911Z,5.15
2023-05-05T11:01:43.791Z,8.93
2023-05-05T11:06:03.760Z,5.75
2023-05-05T11:10:11.010Z,5.70
2023-05-05T11:14:21.424Z,8.05
2023-05-05T11:18:40.422Z,6.72
2023-05-05T11:23:05.342Z,6.82
2023-05-05T11:27:07.380Z,9.23
2023-05-05T11:31:09.151Z,4.80
2023-05-05T11:35:11.548Z,6.45
2023-05-05T11:39:49.265Z,6.18
2023-05-05T11:43:51.133Z,4.05
2023-05-05T11:47:53.196Z,5.55
2023-05-05T11:52:02.678Z,5.57
2023-05-05T11:56:12.409Z,3.30
2023-05-05T12:00:14.814Z,5.03
2023-05-05T12:04:17.567Z,7.40
2023-05-05T12:08:19.656Z,6.07
2023-05-05T12:12:33.220Z,8.25
2023-05-05T12:16:35.321Z,6.10
2023-05-05T12:20:37.285Z,6.00
2023-05-05T12:24:39.161Z,6.97
2023-05-05T12:28:48.014Z,8.02
2023-05-05T12:32:49.941Z,7.97
2023-05-05T12:36:52.307Z,6.82
2023-05-05T12:40:55.966Z,5.20
2023-05-05T12:44:57.882Z,4.75
2023-05-05T12:49:07.166Z,9.27
2023-05-05T12:53:09.287Z,6.30
2023-05-05T12:57:11.649Z,9.43
2023-05-05T13:01:13.520Z,6.13
2023-05-05T13:05:15.393Z,6.47
2023-05-05T13:09:30.508Z,5.90
2023-05-05T13:13:32.625Z,7.53
2023-05-05T13:17:34.940Z,7.70
2023-05-05T13:21:36.966Z,3.92
2023-05-05T13:25:38.786Z,6.95
2023-05-05T13:29:41.848Z,3.20
2023-05-05T13:33:43.654Z,7.60
2023-05-05T13:37:46.859Z,3.67
2023-05-05T13:41:48.699Z,4.20
2023-05-05T13:45:50.669Z,2.35
2023-05-05T13:49:52.452Z,4.07
2023-05-05T13:53:54.370Z,3.47
2023-05-05T13:57:56.533Z,6.00
2023-05-05T14:01:59.129Z,2.50
2023-05-05T14:06:01.001Z,2.45
2023-05-05T14:10:02.844Z,1.60
2023-05-05T14:14:04.661Z,3.92
2023-05-05T14:18:06.885Z,4.22
2023-05-05T14:22:08.711Z,2.47
2023-05-05T14:26:10.574Z,2.95
2023-05-05T14:30:12.847Z,4.03
2023-05-05T14:34:14.788Z,1.55
2023-05-05T14:38:16.583Z,1.63
2023-05-05T14:42:18.368Z,2.97
2023-05-05T14:46:20.387Z,2.55
2023-05-05T14:50:22.379Z,4.57
2023-05-05T14:54:27.837Z,4.07
2023-05-05T14:58:31.215Z,4.13
2023-05-05T15:02:33.236Z,4.00
2023-05-05T15:06:35.867Z,4.70
2023-05-05T15:10:37.646Z,4.53
2023-05-05T15:14:40.103Z,5.07
2023-05-05T15:18:41.909Z,5.75
2023-05-05T15:22:43.697Z,5.65
2023-05-05T15:26:45.485Z,6.97
2023-05-05T15:30:47.290Z,7.72
2023-05-05T15:34:50.457Z,7.32
2023-05-05T15:38:52.554Z,9.57
2023-05-05T15:42:54.424Z,8.18
2023-05-05T15:46:56.321Z,7.05
2023-05-05T15:50:58.193Z,8.45
2023-05-05T15:55:00.661Z,8.20
2023-05-05T15:59:03.504Z,7.68
2023-05-05T16:03:05.376Z,9.13
2023-05-05T16:07:07.285Z,9.02
2023-05-05T16:11:09.197Z,6.90
2023-05-05T16:15:11.770Z,14.25
2023-05-05T16:19:13.711Z,11.70
2023-05-05T16:23:15.556Z,8.40
2023-05-05T16:27:17.736Z,10.50
2023-05-05T16:31:19.577Z,8.45
2023-05-05T16:35:23.077Z,10.80
2023-05-05T16:39:25.442Z,11.20
2023-05-05T16:43:27.347Z,9.63
2023-05-05T16:47:29.239Z,9.68
2023-05-05T16:51:31.258Z,7.13
2023-05-05T16:55:33.181Z,8.32
2023-05-05T16:59:35.176Z,7.80
2023-05-05T17:03:38.321Z,8.13
2023-05-05T17:07:40.288Z,7.00
2023-05-05T17:11:42.146Z,8.18
2023-05-05T17:15:44.506Z,7.95
2023-05-05T17:19:46.449Z,8.90
2023-05-05T17:23:48.433Z,9.23
2023-05-05T17:27:50.269Z,7.55
2023-05-05T17:31:52.216Z,11.27
2023-05-05T17:35:54.782Z,8.70
2023-05-05T17:39:56.571Z,11.60
2023-05-05T17:43:59.668Z,8.20
2023-05-05T17:48:01.555Z,11.10
2023-05-05T17:52:03.526Z,9.13
2023-05-05T17:56:07.282Z,9.55
2023-05-05T18:00:11.036Z,9.43
2023-05-05T18:04:16.095Z,11.27
2023-05-05T18:08:18.678Z,11.32
2023-05-05T18:12:20.653Z,9.75
2023-05-05T18:16:22.625Z,14.13
2023-05-05T18:20:24.554Z,10.77
2023-05-05T18:24:27.673Z,8.27
2023-05-05T18:28:29.539Z,9.15
2023-05-05T18:32:31.546Z,11.73
2023-05-05T18:36:33.445Z,10.88
2023-05-05T18:40:35.288Z,11.13
2023-05-05T18:44:37.181Z,11.77
2023-05-05T18:48:39.053Z,9.93
2023-05-05T18:52:40.949Z,12.18
2023-05-05T18:56:42.801Z,11.52
2023-05-05T19:00:44.679Z,9.00
2023-05-05T19:04:46.606Z,11.20
2023-05-05T19:08:48.493Z,7.85
2023-05-05T19:12:50.763Z,10.20
2023-05-05T19:16:53.068Z,7.43
2023-05-05T19:20:54.945Z,7.50
2023-05-05T19:24:56.830Z,7.68
2023-05-05T19:28:59.550Z,15.40
2023-05-05T19:33:01.471Z,11.23
2023-05-05T19:37:03.449Z,10.63
2023-05-05T19:41:05.433Z,10.13
2023-05-05T19:45:07.862Z,8.90
2023-05-05T19:49:09.802Z,8.10
2023-05-05T19:53:11.993Z,11.52
2023-05-05T19:57:13.864Z,11.50
2023-05-05T20:01:15.770Z,9.80
2023-05-05T20:05:17.908Z,12.40
2023-05-05T20:09:19.979Z,9.18
2023-05-05T20:13:21.932Z,7.50
2023-05-05T20:17:24.038Z,13.50
2023-05-05T20:21:25.873Z,8.75
2023-05-05T20:25:27.704Z,9.55
2023-05-05T20:29:29.632Z,9.80
2023-05-05T20:33:31.480Z,6.60
2023-05-05T20:37:33.356Z,8.70
2023-05-05T20:41:36.415Z,8.82
2023-05-05T20:45:41.479Z,11.93
2023-05-05T20:49:43.348Z,9.38
2023-05-05T20:53:45.192Z,7.13
2023-05-05T20:57:47.157Z,7.25
2023-05-05T21:01:49.112Z,9.48
2023-05-05T21:05:50.985Z,10.48
2023-05-05T21:09:52.790Z,10.68
2023-05-05T21:13:54.577Z,8.25
2023-05-05T21:17:57.348Z,9.98
2023-05-05T21:21:59.397Z,7.93
2023-05-05T21:26:02.482Z,11.13
2023-05-05T21:30:04.672Z,9.90
2023-05-05T21:34:06.474Z,8.65
2023-05-05T21:38:08.580Z,11.63
2023-05-05T21:42:10.562Z,9.05
2023-05-05T21:46:12.539Z,9.48
2023-05-05T21:50:14.387Z,12.02
2023-05-05T21:54:16.358Z,12.43
2023-05-05T21:58:18.239Z,17.38
2023-05-05T22:02:20.355Z,12.77
2023-05-05T22:06:22.545Z,11.07
2023-05-05T22:10:24.406Z,13.75
2023-05-05T22:14:26.459Z,11.80
2023-05-05T22:18:28.288Z,9.77
2023-05-05T22:22:30.112Z,11.27
2023-05-05T22:26:31.903Z,10.00
2023-05-05T22:30:34.272Z,11.88
2023-05-05T22:34:36.208Z,14.50
2023-05-05T22:38:38.015Z,14.00
2023-05-05T22:42:39.932Z,10.75
2023-05-05T22:46:42.336Z,9.60
2023-05-05T22:50:44.114Z,11.95
2023-05-05T22:54:45.988Z,12.98
2023-05-05T22:58:47.772Z,12.88
2023-05-05T23:02:49.679Z,13.77
2023-05-05T23:06:52.146Z,10.95
2023-05-05T23:10:54.077Z,11.48
2023-05-05T23:14:56.009Z,15.75
2023-05-05T23:18:57.826Z,11.10
2023-05-05T23:22:59.662Z,11.25
2023-05-05T23:27:04.605Z,11.15
2023-05-05T23:31:06.524Z,9.80
2023-05-05T23:35:09.250Z,14.77
2023-05-05T23:39:13.395Z,12.00
2023-05-05T23:43:15.207Z,13.68
2023-05-05T23:47:17.056Z,11.90
2023-05-05T23:51:18.912Z,12.82
2023-05-05T23:55:21.286Z,11.70
2023-05-05T23:59:23.128Z,11.32
